Time;durP1;ratioP1;P1;durP2;ratioP2;P2;SDS_P1;SDS_P2;PMS_P1;PMS_P2;Temp;Humidity;BMP_temperature;BMP_pressure;BME280_temperature;BME280_humidity;BME280_pressure;Samples;Min_cycle;Max_cycle;Signal;HPM_P1;HPM_P2
2023/03/23 00:00:22;;;;;;;2.00;1.90;;;12.20;99.90;;;;;;5164974;28;20471;-46
2023/03/23 00:02:53;;;;;;;4.37;2.10;;;12.10;99.90;;;;;;5171413;28;20584;-45
2023/03/23 00:05:24;;;;;;;4.90;2.53;;;12.20;99.90;;;;;;5168451;28;20184;-47
2023/03/23 00:07:55;;;;;;;4.20;1.90;;;12.40;99.90;;;;;;5169859;28;20440;-51
2023/03/23 00:10:26;;;;;;;3.57;2.00;;;12.30;99.90;;;;;;5171250;28;20673;-45
2023/03/23 00:12:57;;;;;;;4.00;1.63;;;12.40;99.90;;;;;;5170347;28;20487;-46
2023/03/23 00:15:32;;;;;;;4.33;2.13;;;12.30;99.90;;;;;;5177578;28;20786;-50
2023/03/23 00:18:04;;;;;;;2.03;1.93;;;12.20;99.90;;;;;;5169431;28;20420;-46
2023/03/23 00:20:40;;;;;;;5.03;2.00;;;12.20;99.90;;;;;;5162019;28;20475;-46
2023/03/23 00:23:11;;;;;;;2.00;1.87;;;12.00;99.90;;;;;;5165507;28;20525;-45
2023/03/23 00:25:41;;;;;;;2.00;1.50;;;11.80;99.90;;;;;;5163265;28;20437;-45
2023/03/23 00:28:12;;;;;;;2.10;1.90;;;11.80;99.90;;;;;;5196477;28;20184;-46
2023/03/23 00:30:44;;;;;;;1.73;1.63;;;12.10;99.90;;;;;;5173861;28;20284;-46
2023/03/23 00:33:16;;;;;;;2.17;1.97;;;12.00;99.90;;;;;;5177264;28;20490;-46
2023/03/23 00:35:47;;;;;;;1.93;1.73;;;11.90;99.90;;;;;;5168707;28;20450;-46
2023/03/23 00:38:19;;;;;;;2.07;1.97;;;11.90;99.90;;;;;;5162901;28;20432;-46
2023/03/23 00:40:50;;;;;;;2.73;1.83;;;11.90;99.90;;;;;;5155974;28;20218;-46
2023/03/23 00:43:24;;;;;;;1.50;1.50;;;11.90;99.90;;;;;;5161980;28;20428;-46
2023/03/23 00:45:56;;;;;;;2.40;1.53;;;11.70;99.90;;;;;;5165942;28;20448;-46
2023/03/23 00:48:29;;;;;;;1.60;1.30;;;11.80;99.90;;;;;;5182475;28;20455;-46
2023/03/23 00:51:01;;;;;;;3.13;1.53;;;11.90;99.90;;;;;;5158466;28;20542;-45
2023/03/23 00:53:32;;;;;;;5.27;2.03;;;11.90;99.90;;;;;;5166030;28;20464;-47
2023/03/23 00:56:03;;;;;;;1.43;1.40;;;11.90;99.90;;;;;;5166559;28;20471;-46
2023/03/23 00:58:34;;;;;;;1.37;1.37;;;11.80;99.90;;;;;;5163429;28;20479;-45
2023/03/23 01:01:05;;;;;;;1.80;1.70;;;11.70;99.90;;;;;;5176683;28;20205;-46
2023/03/23 01:03:36;;;;;;;1.93;1.77;;;11.60;99.90;;;;;;5165417;28;20419;-46
2023/03/23 01:06:12;;;;;;;3.30;1.63;;;11.70;99.90;;;;;;5167978;28;20404;-46
2023/03/23 01:08:46;;;;;;;1.47;1.43;;;11.80;99.90;;;;;;5165180;28;20191;-46
2023/03/23 01:11:17;;;;;;;1.70;1.60;;;11.60;99.90;;;;;;5172856;28;20452;-46
2023/03/23 01:13:47;;;;;;;3.23;2.00;;;11.60;99.90;;;;;;5175495;28;21203;-46
2023/03/23 01:16:18;;;;;;;2.20;2.00;;;11.40;99.90;;;;;;5163411;28;20209;-46
2023/03/23 01:18:49;;;;;;;3.73;1.93;;;11.50;99.90;;;;;;5166266;28;20173;-46
2023/03/23 01:21:20;;;;;;;1.80;1.70;;;11.60;99.90;;;;;;5177076;28;20223;-45
2023/03/23 01:23:51;;;;;;;2.57;1.93;;;11.60;99.90;;;;;;5164448;28;20178;-45
2023/03/23 01:26:24;;;;;;;4.90;1.60;;;11.60;99.90;;;;;;5155839;28;20891;-45
2023/03/23 01:28:55;;;;;;;2.50;1.77;;;11.60;99.90;;;;;;5164546;28;20220;-45
2023/03/23 01:31:26;;;;;;;2.27;1.80;;;11.60;99.90;;;;;;5167948;28;20498;-45
2023/03/23 01:33:57;;;;;;;3.27;1.60;;;11.60;99.90;;;;;;5173473;28;20234;-45
2023/03/23 01:36:32;;;;;;;4.53;2.73;;;11.60;99.90;;;;;;5164970;28;20450;-45
2023/03/23 01:39:05;;;;;;;1.97;1.87;;;11.60;99.90;;;;;;5164848;28;20232;-45
2023/03/23 01:41:36;;;;;;;1.50;1.40;;;11.70;99.90;;;;;;5163772;28;20570;-44
2023/03/23 01:44:08;;;;;;;1.53;1.43;;;11.40;99.90;;;;;;5158039;28;20445;-45
2023/03/23 01:46:38;;;;;;;2.00;1.90;;;11.30;99.90;;;;;;5164192;28;20228;-51
2023/03/23 01:49:18;;;;;;;4.53;2.20;;;11.30;99.90;;;;;;5181943;28;21164;-46
2023/03/23 01:51:56;;;;;;;2.33;2.13;;;11.10;99.90;;;;;;5161707;28;20212;-46
2023/03/23 01:54:29;;;;;;;3.43;1.87;;;11.00;99.90;;;;;;5168533;28;20421;-45
2023/03/23 01:57:03;;;;;;;4.33;2.00;;;11.10;99.90;;;;;;5163284;28;20438;-45
2023/03/23 01:59:35;;;;;;;1.80;1.70;;;11.20;99.90;;;;;;5164558;28;20468;-46
2023/03/23 02:02:05;;;;;;;2.87;2.20;;;11.20;99.90;;;;;;5163803;28;20438;-45
2023/03/23 02:04:37;;;;;;;3.90;1.93;;;11.40;99.90;;;;;;5159681;28;20441;-46
2023/03/23 02:07:08;;;;;;;2.00;1.90;;;11.50;99.90;;;;;;5160564;28;20308;-46
2023/03/23 02:09:39;;;;;;;2.00;1.90;;;11.50;99.90;;;;;;5167263;28;20456;-46
2023/03/23 02:12:10;;;;;;;1.20;1.20;;;11.60;99.90;;;;;;5165390;28;20440;-46
2023/03/23 02:14:40;;;;;;;1.80;1.80;;;11.70;99.90;;;;;;5167091;28;20193;-45
2023/03/23 02:17:24;;;;;;;2.23;2.00;;;11.50;99.90;;;;;;5160051;28;20177;-46
2023/03/23 02:20:10;;;;;;;4.27;1.93;;;11.30;99.90;;;;;;5157264;28;20209;-46
2023/03/23 02:22:59;;;;;;;2.10;1.77;;;11.30;99.90;;;;;;5159798;28;20428;-47
2023/03/23 02:25:45;;;;;;;3.97;1.60;;;11.20;99.90;;;;;;5191918;28;20432;-45
2023/03/23 02:28:24;;;;;;;2.40;1.27;;;11.20;99.90;;;;;;5163140;28;20437;-45
2023/03/23 02:31:25;;;;;;;1.67;1.57;;;11.40;99.90;;;;;;5165889;28;20468;-46
2023/03/23 02:34:12;;;;;;;3.50;1.73;;;11.40;99.90;;;;;;5173531;28;20455;-45
2023/03/23 02:36:46;;;;;;;2.10;1.40;;;11.40;99.90;;;;;;5167780;28;20432;-45
2023/03/23 02:39:25;;;;;;;5.07;1.57;;;11.50;99.90;;;;;;5176825;28;20459;-46
2023/03/23 02:42:02;;;;;;;2.23;2.03;;;11.60;99.90;;;;;;5161159;28;20845;-45
2023/03/23 02:44:36;;;;;;;1.60;1.50;;;11.60;99.90;;;;;;5165670;28;20436;-45
2023/03/23 02:47:12;;;;;;;3.77;2.10;;;11.60;99.90;;;;;;5160016;28;20444;-45
2023/03/23 02:49:45;;;;;;;1.17;1.17;;;11.70;99.90;;;;;;5169821;28;20528;-45
2023/03/23 02:52:21;;;;;;;1.70;1.60;;;11.70;99.90;;;;;;5172238;28;20439;-47
2023/03/23 02:54:53;;;;;;;2.30;1.73;;;11.70;99.90;;;;;;5161241;28;20940;-45
2023/03/23 02:57:26;;;;;;;2.10;2.00;;;11.70;99.90;;;;;;5160254;28;20483;-46
2023/03/23 02:59:56;;;;;;;2.00;1.90;;;11.60;99.90;;;;;;5163440;28;20566;-50
2023/03/23 03:02:29;;;;;;;1.87;1.50;;;11.60;99.90;;;;;;5162642;28;20468;-46
2023/03/23 03:05:31;;;;;;;1.70;1.70;;;11.50;99.90;;;;;;5161377;28;20185;-45
2023/03/23 03:08:24;;;;;;;4.80;2.20;;;11.40;99.90;;;;;;5159040;28;20455;-46
2023/03/23 03:11:08;;;;;;;2.87;2.43;;;11.60;99.90;;;;;;5164150;28;20811;-45
2023/03/23 03:14:23;;;;;;;2.23;2.03;;;11.60;99.90;;;;;;5165647;28;20472;-48
2023/03/23 03:17:10;;;;;;;1.90;1.80;;;11.60;99.90;;;;;;5167713;28;20443;-46
2023/03/23 03:19:45;;;;;;;1.37;1.27;;;11.60;99.90;;;;;;5171441;28;20464;-46
2023/03/23 03:22:20;;;;;;;2.20;2.10;;;11.60;99.90;;;;;;5161611;28;20462;-47
2023/03/23 03:24:52;;;;;;;1.40;1.33;;;11.70;99.90;;;;;;5186407;28;20423;-46
2023/03/23 03:27:24;;;;;;;4.70;1.50;;;11.70;99.90;;;;;;5171739;28;20839;-45
2023/03/23 03:29:59;;;;;;;1.30;1.30;;;11.70;99.90;;;;;;5181475;28;20978;-46
2023/03/23 03:32:38;;;;;;;1.60;1.60;;;11.70;99.90;;;;;;5174946;28;20436;-45
2023/03/23 03:35:10;;;;;;;1.70;1.70;;;11.80;99.90;;;;;;5164051;28;20502;-45
2023/03/23 03:37:42;;;;;;;1.10;1.10;;;11.80;99.90;;;;;;5178058;28;20590;-49
2023/03/23 03:40:17;;;;;;;1.90;1.80;;;11.80;99.90;;;;;;5166428;28;20475;-46
2023/03/23 03:42:48;;;;;;;1.70;1.60;;;11.80;99.90;;;;;;5162372;28;20440;-45
2023/03/23 03:45:20;;;;;;;3.70;1.87;;;11.70;99.90;;;;;;5169454;28;20461;-44
2023/03/23 03:47:50;;;;;;;8.83;2.27;;;11.60;99.90;;;;;;5169697;28;20542;-45
2023/03/23 03:50:21;;;;;;;1.97;1.87;;;11.40;99.90;;;;;;5181893;23;20503;-49
2023/03/23 03:52:52;;;;;;;3.23;1.90;;;11.30;99.90;;;;;;5160617;28;20191;-49
2023/03/23 03:55:23;;;;;;;1.90;1.80;;;11.20;99.90;;;;;;5163491;28;20185;-50
2023/03/23 03:57:55;;;;;;;2.17;1.97;;;11.20;99.90;;;;;;5157376;28;20424;-48
2023/03/23 04:00:25;;;;;;;2.90;1.63;;;11.10;99.90;;;;;;5178524;28;20769;-50
2023/03/23 04:02:56;;;;;;;2.23;2.03;;;11.10;99.90;;;;;;5164289;28;20436;-48
2023/03/23 04:05:28;;;;;;;1.70;1.57;;;11.10;99.90;;;;;;5159755;28;20185;-48
2023/03/23 04:08:01;;;;;;;2.57;1.73;;;11.10;99.90;;;;;;5178968;28;20191;-48
2023/03/23 04:10:33;;;;;;;1.83;1.80;;;11.10;99.90;;;;;;5166810;28;20478;-49
2023/03/23 04:13:04;;;;;;;1.80;1.80;;;11.10;99.90;;;;;;5164910;28;20443;-48
2023/03/23 04:15:35;;;;;;;2.30;1.80;;;11.10;99.90;;;;;;5166238;28;20444;-49
2023/03/23 04:18:05;;;;;;;1.80;1.70;;;11.20;99.90;;;;;;5164889;28;20448;-48
2023/03/23 04:20:37;;;;;;;3.07;1.93;;;11.10;99.90;;;;;;5158553;28;20224;-48
2023/03/23 04:23:08;;;;;;;1.73;1.63;;;11.10;99.90;;;;;;5163314;28;20563;-49
2023/03/23 04:25:41;;;;;;;1.73;1.63;;;11.10;99.90;;;;;;5158605;28;20436;-48
2023/03/23 04:28:12;;;;;;;1.50;1.50;;;11.10;99.90;;;;;;5170036;28;20404;-49
2023/03/23 04:30:43;;;;;;;1.10;1.10;;;11.20;99.90;;;;;;5162985;28;20454;-49
2023/03/23 04:33:14;;;;;;;2.30;2.10;;;11.20;99.90;;;;;;5160754;28;20459;-49
2023/03/23 04:35:47;;;;;;;1.93;1.83;;;11.30;99.90;;;;;;5160850;28;20276;-48
2023/03/23 04:38:20;;;;;;;1.77;1.77;;;11.30;99.90;;;;;;5174513;28;20450;-49
2023/03/23 04:40:52;;;;;;;1.33;1.27;;;11.30;99.90;;;;;;5161124;28;20469;-49
2023/03/23 04:43:24;;;;;;;1.70;1.70;;;11.20;99.90;;;;;;5158862;28;20441;-49
2023/03/23 04:45:56;;;;;;;2.10;1.77;;;11.10;99.90;;;;;;5177596;28;20415;-49
2023/03/23 04:48:30;;;;;;;1.63;1.63;;;11.00;99.90;;;;;;5167942;28;20431;-49
2023/03/23 04:51:04;;;;;;;1.63;1.63;;;10.90;99.90;;;;;;5160087;28;20610;-48
2023/03/23 04:53:35;;;;;;;1.70;1.70;;;10.70;99.90;;;;;;5153879;28;20449;-49
2023/03/23 04:56:06;;;;;;;2.20;1.87;;;10.70;99.90;;;;;;5157387;28;20440;-49
2023/03/23 04:58:39;;;;;;;1.10;1.10;;;10.60;99.90;;;;;;5160204;28;20429;-49
2023/03/23 05:01:12;;;;;;;4.77;1.60;;;10.60;99.90;;;;;;5170915;28;21062;-49
2023/03/23 05:03:44;;;;;;;2.00;1.90;;;10.60;99.90;;;;;;5163073;28;20435;-48
2023/03/23 05:06:15;;;;;;;1.63;1.53;;;10.50;99.90;;;;;;5163800;28;20555;-49
2023/03/23 05:08:46;;;;;;;2.93;2.00;;;10.50;99.90;;;;;;5158084;28;20996;-49
2023/03/23 05:11:16;;;;;;;1.30;1.30;;;10.40;99.90;;;;;;5159128;28;20688;-50
2023/03/23 05:13:47;;;;;;;12.13;2.13;;;10.40;99.90;;;;;;5161713;28;20188;-49
2023/03/23 05:16:19;;;;;;;2.40;2.20;;;10.30;99.90;;;;;;5167926;28;20752;-49
2023/03/23 05:18:50;;;;;;;2.33;2.23;;;10.30;99.90;;;;;;5167073;28;20267;-48
2023/03/23 05:21:20;;;;;;;2.40;2.20;;;10.20;99.90;;;;;;5152630;28;20553;-49
2023/03/23 05:23:54;;;;;;;2.60;2.10;;;10.20;99.90;;;;;;5155271;28;20176;-49
2023/03/23 05:26:28;;;;;;;9.93;4.03;;;10.20;99.90;;;;;;5163390;28;20173;-50
2023/03/23 05:28:59;;;;;;;2.97;2.33;;;10.20;99.90;;;;;;5161320;28;20468;-50
2023/03/23 05:31:30;;;;;;;3.50;2.37;;;10.10;99.90;;;;;;5169336;28;20541;-49
2023/03/23 05:34:00;;;;;;;2.70;2.47;;;10.10;99.90;;;;;;5165702;28;20182;-50
2023/03/23 05:36:31;;;;;;;2.53;2.30;;;10.10;99.90;;;;;;5169910;28;20436;-49
2023/03/23 05:39:03;;;;;;;2.37;2.27;;;10.10;99.90;;;;;;5168976;28;20187;-49
2023/03/23 05:41:34;;;;;;;2.20;2.10;;;10.10;99.90;;;;;;5172766;28;20208;-49
2023/03/23 05:44:05;;;;;;;2.27;2.07;;;10.10;99.90;;;;;;5154161;28;20491;-49
2023/03/23 05:46:35;;;;;;;2.90;2.13;;;10.10;99.90;;;;;;5159434;28;20184;-50
2023/03/23 05:49:07;;;;;;;2.47;2.17;;;10.00;99.90;;;;;;5161951;28;20416;-49
2023/03/23 05:51:38;;;;;;;2.47;2.27;;;10.10;99.90;;;;;;5162173;28;20221;-49
2023/03/23 05:54:10;;;;;;;2.50;2.40;;;10.10;99.90;;;;;;5163823;28;20443;-49
2023/03/23 05:56:41;;;;;;;4.50;2.43;;;10.00;99.90;;;;;;5148396;28;20527;-49
2023/03/23 05:59:11;;;;;;;33.73;9.87;;;10.00;99.90;;;;;;5166958;28;20563;-49
2023/03/23 06:01:42;;;;;;;2.10;2.00;;;10.20;99.90;;;;;;5154897;28;20197;-49
2023/03/23 06:04:13;;;;;;;2.00;2.00;;;10.20;99.90;;;;;;5161160;28;20474;-49
2023/03/23 06:06:44;;;;;;;2.77;1.87;;;10.10;99.90;;;;;;5162723;28;20181;-51
2023/03/23 06:09:15;;;;;;;8.27;2.33;;;10.20;99.90;;;;;;5164950;28;20288;-50
2023/03/23 06:11:47;;;;;;;2.10;1.87;;;10.10;99.90;;;;;;5169758;28;20600;-51
2023/03/23 06:14:18;;;;;;;8.40;2.90;;;10.10;99.90;;;;;;5167587;28;20181;-52
2023/03/23 06:16:48;;;;;;;5.10;2.30;;;10.00;99.90;;;;;;5167715;28;21060;-53
2023/03/23 06:19:20;;;;;;;2.20;1.97;;;10.00;99.90;;;;;;5161379;28;20601;-52
2023/03/23 06:21:50;;;;;;;2.73;2.10;;;10.10;99.90;;;;;;5162270;28;20283;-51
2023/03/23 06:24:21;;;;;;;2.33;2.13;;;10.10;99.90;;;;;;5154635;28;20531;-50
2023/03/23 06:26:52;;;;;;;4.20;2.60;;;10.10;99.90;;;;;;5167846;28;20189;-52
2023/03/23 06:29:23;;;;;;;4.13;2.47;;;10.00;99.90;;;;;;5153562;28;20559;-52
2023/03/23 06:32:00;;;;;;;8.30;2.53;;;10.00;99.90;;;;;;5152016;28;20209;-52
2023/03/23 06:34:32;;;;;;;4.00;2.30;;;10.00;99.90;;;;;;5164958;28;20506;-51
2023/03/23 06:37:03;;;;;;;5.20;2.40;;;10.10;99.90;;;;;;5192539;28;20419;-51
2023/03/23 06:39:33;;;;;;;4.40;2.30;;;10.10;99.90;;;;;;5165903;28;20485;-52
2023/03/23 06:42:05;;;;;;;8.20;2.97;;;10.10;99.90;;;;;;5164971;28;20240;-53
2023/03/23 06:44:35;;;;;;;2.70;2.50;;;10.20;99.90;;;;;;5172015;28;20188;-51
2023/03/23 06:47:07;;;;;;;3.50;3.00;;;10.20;99.90;;;;;;5150158;28;20449;-51
2023/03/23 06:49:38;;;;;;;4.37;2.87;;;10.20;99.90;;;;;;5165114;28;20284;-50
2023/03/23 06:52:08;;;;;;;2.07;1.97;;;10.40;99.90;;;;;;5153874;28;20535;-50
2023/03/23 06:54:39;;;;;;;3.90;3.10;;;10.30;99.90;;;;;;5152954;28;20200;-51
2023/03/23 06:57:10;;;;;;;2.33;2.13;;;10.30;99.90;;;;;;5161951;28;20189;-52
2023/03/23 06:59:42;;;;;;;3.53;2.80;;;10.30;99.90;;;;;;5175540;28;21010;-51
2023/03/23 07:02:14;;;;;;;1.90;1.90;;;10.30;99.90;;;;;;5158467;28;20181;-52
2023/03/23 07:04:45;;;;;;;3.50;2.87;;;10.40;99.90;;;;;;5151575;28;20432;-51
2023/03/23 07:07:18;;;;;;;4.93;2.50;;;10.40;99.90;;;;;;5167889;28;20428;-52
2023/03/23 07:09:48;;;;;;;3.47;2.50;;;10.30;99.90;;;;;;5153193;28;20181;-52
2023/03/23 07:12:19;;;;;;;3.43;3.23;;;10.30;99.90;;;;;;5163151;28;20447;-50
2023/03/23 07:14:50;;;;;;;3.63;2.93;;;10.40;99.90;;;;;;5155573;28;20462;-51
2023/03/23 07:17:21;;;;;;;5.33;3.70;;;10.40;99.90;;;;;;5157554;28;20538;-52
2023/03/23 07:19:52;;;;;;;3.27;3.07;;;10.40;99.90;;;;;;5163192;28;20209;-53
2023/03/23 07:22:23;;;;;;;2.07;1.97;;;10.40;99.90;;;;;;5155331;28;20445;-52
2023/03/23 07:24:53;;;;;;;5.90;3.17;;;10.40;99.90;;;;;;5153848;28;20190;-51
2023/03/23 07:27:25;;;;;;;6.57;3.37;;;10.50;99.90;;;;;;5155198;28;20216;-51
2023/03/23 07:29:57;;;;;;;5.23;3.73;;;10.50;99.90;;;;;;5157193;28;20211;-53
2023/03/23 07:32:28;;;;;;;3.07;2.70;;;10.50;99.90;;;;;;5170818;28;20952;-52
2023/03/23 07:34:58;;;;;;;7.13;3.87;;;10.50;99.90;;;;;;5163462;28;20440;-52
2023/03/23 07:37:29;;;;;;;6.83;2.70;;;10.60;99.90;;;;;;5155979;28;20185;-53
2023/03/23 07:40:08;;;;;;;9.40;3.23;;;10.60;99.90;;;;;;5156338;28;20245;-52
2023/03/23 07:42:38;;;;;;;4.40;2.50;;;10.60;99.90;;;;;;5157190;28;20475;-51
2023/03/23 07:45:13;;;;;;;5.73;2.87;;;10.60;99.90;;;;;;5153717;28;20437;-52
2023/03/23 07:47:44;;;;;;;6.17;2.83;;;10.60;99.90;;;;;;5158147;28;20181;-51
2023/03/23 07:50:15;;;;;;;7.50;4.43;;;10.60;99.90;;;;;;5155647;28;20484;-53
2023/03/23 07:52:46;;;;;;;5.57;3.93;;;10.80;99.90;;;;;;5162141;28;20432;-51
2023/03/23 07:55:17;;;;;;;4.57;3.27;;;10.90;99.90;;;;;;5154400;28;20208;-52
2023/03/23 07:57:48;;;;;;;4.40;3.93;;;11.00;99.90;;;;;;5145392;28;20278;-52
2023/03/23 08:00:20;;;;;;;7.97;3.90;;;10.90;99.90;;;;;;5158275;28;20467;-52
2023/03/23 08:03:00;;;;;;;5.60;3.20;;;10.80;99.90;;;;;;5155109;28;20432;-52
2023/03/23 08:05:32;;;;;;;3.60;3.20;;;10.80;99.90;;;;;;5171805;28;20808;-52
2023/03/23 08:08:03;;;;;;;3.23;3.13;;;10.90;99.90;;;;;;5137588;28;20453;-52
2023/03/23 08:10:34;;;;;;;4.10;3.07;;;10.90;99.90;;;;;;5149640;28;20492;-52
2023/03/23 08:13:06;;;;;;;2.77;2.57;;;11.00;99.90;;;;;;5149850;28;20185;-51
2023/03/23 08:15:37;;;;;;;4.20;3.90;;;11.00;99.90;;;;;;5152019;28;20445;-52
2023/03/23 08:18:08;;;;;;;6.73;3.10;;;11.00;99.90;;;;;;5154155;28;20455;-52
2023/03/23 08:20:40;;;;;;;3.43;3.13;;;11.00;99.90;;;;;;5148989;28;20209;-53
2023/03/23 08:23:11;;;;;;;4.33;3.50;;;11.10;99.90;;;;;;5148019;28;20463;-52
2023/03/23 08:25:45;;;;;;;5.50;2.87;;;11.10;99.90;;;;;;5149815;28;20414;-53
2023/03/23 08:28:15;;;;;;;5.20;3.90;;;11.10;99.90;;;;;;5148688;28;20842;-52
2023/03/23 08:30:46;;;;;;;11.57;4.87;;;11.10;99.90;;;;;;5149821;28;20495;-51
2023/03/23 08:33:17;;;;;;;5.07;4.07;;;11.20;99.90;;;;;;5153149;28;20281;-52
2023/03/23 08:35:56;;;;;;;8.03;7.00;;;11.20;99.90;;;;;;5148508;28;20646;-52
2023/03/23 08:38:28;;;;;;;14.70;11.13;;;11.10;99.90;;;;;;5147981;28;20439;-51
2023/03/23 08:41:02;;;;;;;6.40;4.90;;;11.10;99.90;;;;;;5158030;28;20490;-50
2023/03/23 08:43:34;;;;;;;17.40;7.20;;;11.00;99.90;;;;;;5147949;28;20431;-51
2023/03/23 08:46:09;;;;;;;8.13;4.70;;;11.10;99.90;;;;;;5149502;28;20500;-51
2023/03/23 08:48:40;;;;;;;4.17;3.37;;;11.00;99.90;;;;;;5147866;28;20436;-49
2023/03/23 08:51:11;;;;;;;4.10;3.73;;;11.20;99.90;;;;;;5150081;28;20539;-52
2023/03/23 08:53:42;;;;;;;7.60;2.93;;;11.30;99.90;;;;;;5148533;28;20441;-50
2023/03/23 08:56:13;;;;;;;5.10;3.73;;;11.50;99.90;;;;;;5153686;28;20437;-52
2023/03/23 08:58:44;;;;;;;4.50;4.10;;;11.50;99.90;;;;;;5153588;28;20732;-52
2023/03/23 09:01:15;;;;;;;8.07;4.73;;;11.50;99.90;;;;;;5149357;28;20479;-51
2023/03/23 09:03:46;;;;;;;5.87;4.60;;;11.50;99.90;;;;;;5153985;28;20209;-51
2023/03/23 09:06:17;;;;;;;9.33;4.57;;;11.50;99.90;;;;;;5149195;28;20182;-53
2023/03/23 09:08:48;;;;;;;5.40;4.90;;;11.50;99.90;;;;;;5150732;28;20940;-52
2023/03/23 09:11:19;;;;;;;4.63;3.77;;;11.70;99.90;;;;;;5162926;28;20465;-51
2023/03/23 09:13:50;;;;;;;7.30;3.80;;;11.80;99.90;;;;;;5148607;28;20425;-53
2023/03/23 09:16:20;;;;;;;4.60;4.20;;;11.90;99.90;;;;;;5148664;28;20448;-52
2023/03/23 09:18:51;;;;;;;4.80;4.40;;;11.90;99.90;;;;;;5148322;28;20196;-50
2023/03/23 09:21:22;;;;;;;3.90;3.17;;;11.90;99.90;;;;;;5147254;28;20213;-50
2023/03/23 09:23:56;;;;;;;3.70;3.40;;;11.70;99.90;;;;;;5147168;28;20177;-53
2023/03/23 09:26:28;;;;;;;4.47;4.10;;;11.80;99.90;;;;;;5136515;28;20527;-52
2023/03/23 09:28:59;;;;;;;3.90;3.60;;;11.80;99.90;;;;;;5151089;28;20461;-52
2023/03/23 09:31:31;;;;;;;2.77;2.63;;;11.80;99.90;;;;;;5156237;28;20488;-53
2023/03/23 09:34:03;;;;;;;5.17;2.60;;;12.00;99.90;;;;;;5154592;28;20185;-52
2023/03/23 09:36:35;;;;;;;3.27;3.00;;;12.30;99.90;;;;;;5158835;28;20444;-51
2023/03/23 09:39:11;;;;;;;25.27;3.23;;;12.40;99.90;;;;;;5133964;28;20437;-50
2023/03/23 09:42:12;;;;;;;3.27;2.47;;;12.60;99.90;;;;;;5156066;28;21050;-52
2023/03/23 09:45:13;;;;;;;3.40;3.10;;;12.80;99.90;;;;;;5153263;28;20428;-52
2023/03/23 09:48:06;;;;;;;3.40;2.20;;;12.90;99.90;;;;;;5161754;28;20433;-50
2023/03/23 09:50:42;;;;;;;4.20;2.90;;;13.00;99.90;;;;;;5175316;23;20502;-47
2023/03/23 09:53:35;;;;;;;3.90;2.57;;;13.10;99.90;;;;;;5143405;28;20437;-51
2023/03/23 09:56:13;;;;;;;4.20;2.43;;;13.10;99.90;;;;;;5143433;28;20437;-49
2023/03/23 09:58:53;;;;;;;3.43;3.23;;;13.10;99.90;;;;;;5156113;28;20543;-45
2023/03/23 10:01:30;;;;;;;8.20;2.50;;;13.20;99.90;;;;;;5139517;28;20476;-45
2023/03/23 10:04:21;;;;;;;2.50;2.40;;;13.40;99.90;;;;;;5144768;28;20455;-50
2023/03/23 10:06:59;;;;;;;2.43;2.10;;;13.60;99.90;;;;;;5142076;28;20437;-45
2023/03/23 10:09:29;;;;;;;1.80;1.80;;;13.80;99.90;;;;;;5146164;28;20828;-46
2023/03/23 10:12:29;;;;;;;2.63;1.80;;;13.90;99.90;;;;;;5146929;28;20463;-45
2023/03/23 10:15:31;;;;;;;2.70;2.60;;;13.90;99.90;;;;;;5144800;28;20182;-45
2023/03/23 10:18:25;;;;;;;1.73;1.73;;;13.90;99.90;;;;;;5143086;28;20475;-51
2023/03/23 10:21:01;;;;;;;1.87;1.80;;;14.10;99.90;;;;;;5142461;28;20486;-45
2023/03/23 10:23:51;;;;;;;2.27;2.17;;;14.40;99.90;;;;;;5138290;28;20804;-46
2023/03/23 10:26:47;;;;;;;1.87;1.87;;;14.50;99.90;;;;;;5146079;28;20409;-45
2023/03/23 10:29:36;;;;;;;1.67;1.67;;;14.70;99.90;;;;;;5135613;28;20522;-47
2023/03/23 10:32:24;;;;;;;2.70;2.13;;;14.90;99.90;;;;;;5147120;28;20491;-47
2023/03/23 10:35:01;;;;;;;1.90;1.80;;;15.00;99.90;;;;;;5142972;28;20456;-46
2023/03/23 10:37:52;;;;;;;5.43;2.87;;;15.20;99.90;;;;;;5142952;28;20441;-45
2023/03/23 10:40:27;;;;;;;1.30;1.30;;;15.50;99.90;;;;;;5135498;28;20674;-45
2023/03/23 10:42:58;;;;;;;2.47;1.47;;;15.60;99.90;;;;;;5139738;28;20454;-46
2023/03/23 10:45:32;;;;;;;2.20;1.70;;;15.80;99.90;;;;;;5142540;28;20437;-46
2023/03/23 10:48:23;;;;;;;3.33;2.10;;;16.00;99.90;;;;;;5146448;28;20188;-45
2023/03/23 10:50:58;;;;;;;2.13;2.03;;;16.00;99.90;;;;;;5147050;28;20476;-47
2023/03/23 10:53:37;;;;;;;3.83;2.00;;;16.20;99.90;;;;;;5143315;28;20428;-45
2023/03/23 10:56:29;;;;;;;1.63;1.43;;;16.20;99.90;;;;;;5147938;28;20770;-46
2023/03/23 10:59:11;;;;;;;5.60;2.43;;;16.10;99.90;;;;;;5145140;28;20444;-47
2023/03/23 11:01:44;;;;;;;3.60;1.83;;;16.00;99.90;;;;;;5143140;28;20464;-45
2023/03/23 11:04:17;;;;;;;1.77;1.67;;;16.10;99.90;;;;;;5133340;28;20438;-46
2023/03/23 11:07:00;;;;;;;1.60;1.60;;;16.10;99.90;;;;;;5140264;28;20436;-46
2023/03/23 11:09:50;;;;;;;1.10;1.00;;;16.10;99.90;;;;;;5137972;28;20441;-47
2023/03/23 11:12:22;;;;;;;1.47;1.33;;;16.10;99.90;;;;;;5146371;28;20574;-45
2023/03/23 11:15:15;;;;;;;2.53;2.30;;;16.10;99.90;;;;;;5141282;28;20520;-46
2023/03/23 11:17:56;;;;;;;3.33;1.27;;;16.00;99.90;;;;;;5163954;28;20456;-47
2023/03/23 11:20:29;;;;;;;5.10;2.30;;;16.10;99.90;;;;;;5148229;28;20479;-47
2023/03/23 11:22:59;;;;;;;2.40;2.10;;;15.90;99.90;;;;;;5147976;28;20531;-44
2023/03/23 11:25:30;;;;;;;3.80;2.40;;;15.90;99.90;;;;;;5147820;28;20499;-46
2023/03/23 11:28:01;;;;;;;2.40;2.20;;;16.00;99.90;;;;;;5151637;28;20186;-46
2023/03/23 11:30:32;;;;;;;3.10;2.90;;;16.10;99.90;;;;;;5143614;28;20291;-47
2023/03/23 11:33:03;;;;;;;17.03;6.50;;;16.30;99.90;;;;;;5144589;28;20452;-45
2023/03/23 11:35:33;;;;;;;2.23;2.03;;;16.40;99.90;;;;;;5153595;28;20189;-45
2023/03/23 11:38:07;;;;;;;7.50;1.73;;;16.60;99.90;;;;;;5155312;28;20280;-45
2023/03/23 11:40:47;;;;;;;1.50;1.50;;;16.70;99.90;;;;;;5148228;28;20768;-46
2023/03/23 11:43:24;;;;;;;1.43;1.43;;;16.80;99.90;;;;;;5151497;28;20605;-47
2023/03/23 11:46:01;;;;;;;2.57;1.43;;;16.90;99.90;;;;;;5147743;28;20439;-45
2023/03/23 11:48:56;;;;;;;1.87;1.70;;;17.00;99.90;;;;;;5137590;28;20432;-45
2023/03/23 11:51:32;;;;;;;1.27;1.27;;;17.00;99.90;;;;;;5146504;28;20480;-47
2023/03/23 11:54:26;;;;;;;4.37;3.07;;;17.20;99.90;;;;;;5145846;28;20491;-46
2023/03/23 11:56:57;;;;;;;4.40;2.60;;;17.20;99.90;;;;;;5138386;28;20449;-46
2023/03/23 11:59:33;;;;;;;15.77;2.70;;;17.30;99.90;;;;;;5148419;28;20559;-50
2023/03/23 12:02:20;;;;;;;2.83;1.53;;;17.20;99.90;;;;;;5138134;28;20467;-46
2023/03/23 12:05:23;;;;;;;3.60;1.90;;;17.10;99.90;;;;;;5144753;28;20475;-45
2023/03/23 12:08:13;;;;;;;3.23;1.43;;;16.90;99.90;;;;;;5146221;28;20433;-45
2023/03/23 12:10:47;;;;;;;1.80;1.70;;;17.00;99.90;;;;;;5148412;28;20472;-47
2023/03/23 12:13:39;;;;;;;1.70;1.60;;;17.10;99.90;;;;;;5143789;28;20440;-45
2023/03/23 12:16:33;;;;;;;2.73;2.10;;;17.10;99.90;;;;;;5149934;28;20440;-46
2023/03/23 12:19:21;;;;;;;1.67;1.57;;;17.20;99.90;;;;;;5149845;28;20429;-46
2023/03/23 12:22:20;;;;;;;1.13;1.13;;;17.30;99.90;;;;;;5148251;28;20457;-45
2023/03/23 12:25:05;;;;;;;2.63;1.63;;;17.20;99.90;;;;;;5138913;28;20437;-46
2023/03/23 12:27:47;;;;;;;3.10;2.13;;;17.00;99.90;;;;;;5142849;28;20516;-46
2023/03/23 12:30:47;;;;;;;4.10;1.40;;;17.00;99.90;;;;;;5138812;28;20441;-46
2023/03/23 12:33:45;;;;;;;5.13;1.60;;;17.00;99.90;;;;;;5161018;28;20968;-46
2023/03/23 12:36:27;;;;;;;6.90;2.40;;;16.90;99.90;;;;;;5149104;28;20513;-45
2023/03/23 12:39:29;;;;;;;1.73;1.40;;;16.90;99.90;;;;;;5148301;28;20567;-46
2023/03/23 12:42:00;;;;;;;1.57;1.47;;;16.80;99.90;;;;;;5145022;28;20461;-46
2023/03/23 12:44:53;;;;;;;3.33;1.23;;;17.00;99.90;;;;;;5143132;28;21021;-46
2023/03/23 12:47:50;;;;;;;1.93;1.83;;;16.80;99.90;;;;;;5147744;28;20189;-47
2023/03/23 12:50:39;;;;;;;1.63;1.43;;;16.70;99.90;;;;;;5148449;28;20464;-46
2023/03/23 12:53:21;;;;;;;6.67;2.03;;;16.70;99.90;;;;;;5141598;28;20476;-47
2023/03/23 12:56:05;;;;;;;2.10;1.97;;;16.80;99.90;;;;;;5141817;28;20435;-45
2023/03/23 12:58:46;;;;;;;3.40;1.90;;;16.80;99.90;;;;;;5146187;28;20512;-46
2023/03/23 13:01:42;;;;;;;1.93;1.73;;;16.90;99.90;;;;;;5147334;28;21077;-47
2023/03/23 13:04:21;;;;;;;3.20;1.97;;;17.20;99.90;;;;;;5143148;28;20448;-45
2023/03/23 13:06:52;;;;;;;2.30;2.00;;;17.40;99.90;;;;;;5146788;28;20445;-46
2023/03/23 13:09:36;;;;;;;8.13;5.03;;;17.70;99.90;;;;;;5148330;28;20445;-46
2023/03/23 13:12:10;;;;;;;6.53;2.60;;;17.60;99.40;;;;;;5147305;28;20471;-46
2023/03/23 13:15:06;;;;;;;4.23;2.40;;;17.80;99.90;;;;;;5140571;28;20436;-46
2023/03/23 13:17:42;;;;;;;2.43;2.00;;;17.80;97.50;;;;;;5146247;28;20753;-44
2023/03/23 13:20:34;;;;;;;2.67;2.47;;;17.70;97.80;;;;;;5147378;28;20471;-46
2023/03/23 13:23:18;;;;;;;4.70;2.10;;;17.70;96.40;;;;;;5145905;28;20520;-45
2023/03/23 13:25:59;;;;;;;5.33;4.80;;;17.60;98.40;;;;;;5145980;28;20437;-45
2023/03/23 13:29:01;;;;;;;3.23;1.50;;;17.40;97.40;;;;;;5139081;28;20469;-46